Mount Vernon, Mississippi
Current Conditions -  °F | °C
As of 2:53 AM on Thursday 23 Oct 2014 (Local Time) from KTUP Reporting Station
Clear Clear  
Wind Chill: 40°   Ceiling: Unl
Heat Index: 43°   Visibility: 10mi
Dew Point: 40°   Wind: 5mph
Humidity: 89%   Direction: 40°NE
Pressure: 30.17"   Gusts: NA
Location:  34.2235°N, 88.7398°W
Report Text: KTUP 230753Z AUTO 04004KT 10SM CLR 06/04 A3017 RMK AO2 SLP213 T00610044 PWINO
Loading
Personal Weather Stations






























Interactive Weather Map
Tropical Storm Tracking
New forecast layout! Learn more

10-Day Weather Forecast

Advertisements
Track Severe Weather on mobile